Time;durP1;ratioP1;P1;durP2;ratioP2;P2;SDS_P1;SDS_P2;PMS_P1;PMS_P2;Temp;Humidity;BMP_temperature;BMP_pressure;BME280_temperature;BME280_humidity;BME280_pressure;Samples;Min_cycle;Max_cycle;Signal;HPM_P1;HPM_P2
2023/01/01 00:02:00;;;;;;;118.23;90.30;;;10.50;99.90;;;;;;5084293;28;20193;-78
2023/01/01 00:04:27;;;;;;;87.37;62.17;;;10.60;99.90;;;;;;5090906;28;20205;-81
2023/01/01 00:06:55;;;;;;;95.30;68.23;;;10.70;99.90;;;;;;5086559;28;20192;-79
2023/01/01 00:12:06;;;;;;;89.10;71.53;;;11.10;99.90;;;;;;5082869;28;20200;-79
2023/01/01 00:14:33;;;;;;;54.00;42.83;;;11.10;99.90;;;;;;5087856;28;20217;-79
2023/01/01 00:17:00;;;;;;;61.37;49.00;;;11.20;99.90;;;;;;5097163;28;20196;-77
2023/01/01 00:19:26;;;;;;;63.50;46.77;;;11.20;99.90;;;;;;5098775;28;20201;-78
2023/01/01 00:21:54;;;;;;;56.30;44.63;;;11.00;99.90;;;;;;5097612;28;20192;-78
2023/01/01 00:24:22;;;;;;;50.87;40.23;;;10.90;99.90;;;;;;5099122;28;20196;-80
2023/01/01 00:26:48;;;;;;;44.80;34.77;;;10.70;99.90;;;;;;5098407;28;20328;-78
2023/01/01 00:29:15;;;;;;;39.27;31.27;;;10.80;99.90;;;;;;5097372;28;20200;-78
2023/01/01 00:31:42;;;;;;;42.63;34.07;;;10.90;99.90;;;;;;5097106;28;20245;-78
2023/01/01 00:34:10;;;;;;;42.40;34.30;;;11.00;99.90;;;;;;5097987;28;20254;-79
2023/01/01 00:36:36;;;;;;;38.20;29.80;;;10.90;99.90;;;;;;5097166;28;20204;-78
2023/01/01 00:39:04;;;;;;;34.10;28.73;;;10.80;99.90;;;;;;5097316;28;20197;-78
2023/01/01 00:41:31;;;;;;;40.33;33.17;;;10.60;99.90;;;;;;5097447;28;20200;-78
2023/01/01 00:43:58;;;;;;;41.30;32.33;;;10.40;99.90;;;;;;5096879;28;20201;-78
2023/01/01 00:46:24;;;;;;;39.77;32.40;;;10.30;99.90;;;;;;5096523;28;20246;-79
2023/01/01 00:48:51;;;;;;;32.87;25.47;;;10.10;99.90;;;;;;5096757;28;20246;-78
2023/01/01 00:51:17;;;;;;;30.87;23.73;;;10.20;99.90;;;;;;5096912;28;20197;-79
2023/01/01 00:53:44;;;;;;;30.87;23.83;;;10.20;99.90;;;;;;5096935;28;20200;-78
2023/01/01 00:56:12;;;;;;;31.00;25.07;;;10.20;99.90;;;;;;5096747;28;20231;-78
2023/01/01 00:58:38;;;;;;;35.77;29.93;;;10.10;99.90;;;;;;5096522;28;20227;-79
2023/01/01 01:01:05;;;;;;;33.03;27.63;;;10.00;99.90;;;;;;5095919;28;20196;-79
2023/01/01 01:03:32;;;;;;;29.43;24.47;;;9.90;99.90;;;;;;5095986;28;20193;-79
2023/01/01 01:06:07;;;;;;;31.40;23.97;;;9.80;99.90;;;;;;5096817;28;20341;-79
2023/01/01 01:08:35;;;;;;;42.87;35.80;;;9.80;99.90;;;;;;5096331;28;20259;-78
2023/01/01 01:11:04;;;;;;;31.57;24.77;;;9.70;99.90;;;;;;5096424;28;20196;-78
2023/01/01 01:13:32;;;;;;;34.33;28.43;;;9.70;99.90;;;;;;5096345;28;20192;-78
2023/01/01 01:15:59;;;;;;;40.90;28.87;;;9.70;99.90;;;;;;5096782;28;20224;-79
2023/01/01 01:18:26;;;;;;;34.63;26.23;;;9.60;99.90;;;;;;5097363;28;20257;-78
2023/01/01 01:20:53;;;;;;;25.73;19.33;;;9.50;99.90;;;;;;5097086;28;20201;-78
2023/01/01 01:23:20;;;;;;;44.07;34.87;;;9.50;99.90;;;;;;5096513;28;20200;-78
2023/01/01 01:25:47;;;;;;;28.43;22.83;;;9.50;99.90;;;;;;5096467;28;20205;-79
2023/01/01 01:28:14;;;;;;;33.90;26.80;;;9.50;99.90;;;;;;5096469;28;20557;-78
2023/01/01 01:30:42;;;;;;;33.50;26.73;;;9.60;99.90;;;;;;5096327;28;20246;-78
2023/01/01 01:33:08;;;;;;;43.97;35.07;;;9.40;99.90;;;;;;5097019;28;20253;-78
2023/01/01 01:35:35;;;;;;;41.37;33.83;;;9.30;99.90;;;;;;5097922;28;20683;-78
2023/01/01 01:38:02;;;;;;;44.53;34.50;;;9.40;99.90;;;;;;5096792;28;20192;-78
2023/01/01 01:40:29;;;;;;;44.73;34.23;;;9.40;99.90;;;;;;5096476;28;20200;-79
2023/01/01 01:42:55;;;;;;;39.73;29.93;;;9.70;99.90;;;;;;5096786;28;20208;-78
2023/01/01 01:45:22;;;;;;;38.70;28.33;;;9.80;99.90;;;;;;5097666;28;20222;-78
2023/01/01 01:47:52;;;;;;;33.43;26.40;;;9.80;99.90;;;;;;5097954;28;20193;-77
2023/01/01 01:50:25;;;;;;;29.87;23.63;;;9.70;99.90;;;;;;5097359;28;20196;-79
2023/01/01 01:53:01;;;;;;;28.30;21.87;;;9.70;99.90;;;;;;5097032;28;20200;-78
2023/01/01 01:55:30;;;;;;;29.23;22.53;;;9.80;99.90;;;;;;5096554;28;20224;-77
2023/01/01 01:57:57;;;;;;;29.00;22.53;;;10.10;99.90;;;;;;5097047;28;20265;-78
2023/01/01 02:00:24;;;;;;;24.57;19.40;;;10.20;99.90;;;;;;5096847;28;20242;-78
2023/01/01 02:02:56;;;;;;;23.70;19.63;;;10.10;99.90;;;;;;5096945;28;20218;-78
2023/01/01 02:05:24;;;;;;;23.43;19.93;;;10.00;99.90;;;;;;5097338;28;20200;-78
2023/01/01 02:07:52;;;;;;;21.30;16.83;;;10.00;99.90;;;;;;5096478;28;20224;-78
2023/01/01 02:10:19;;;;;;;20.77;16.50;;;9.90;99.90;;;;;;5096318;28;20192;-78
2023/01/01 02:12:46;;;;;;;23.67;18.57;;;9.80;99.90;;;;;;5096052;28;20201;-78
2023/01/01 02:15:13;;;;;;;21.63;17.17;;;9.70;99.90;;;;;;5097327;28;20220;-78
2023/01/01 02:17:47;;;;;;;21.87;16.67;;;9.50;99.90;;;;;;5096324;28;20625;-79
2023/01/01 02:20:33;;;;;;;24.47;18.07;;;9.50;99.90;;;;;;5095970;28;20191;-79
2023/01/01 02:23:25;;;;;;;25.20;19.20;;;9.30;99.90;;;;;;5097288;28;20196;-78
2023/01/01 02:26:10;;;;;;;25.73;21.20;;;9.20;99.90;;;;;;5098357;28;20200;-78
2023/01/01 02:28:50;;;;;;;23.67;19.20;;;9.00;99.90;;;;;;5098332;28;20204;-78
2023/01/01 02:31:24;;;;;;;24.67;18.33;;;8.90;99.90;;;;;;5099035;28;20613;-78
2023/01/01 02:33:55;;;;;;;29.70;21.90;;;8.90;99.90;;;;;;5098693;28;20560;-78
2023/01/01 02:36:22;;;;;;;24.17;18.97;;;8.80;99.90;;;;;;5098358;28;20561;-78
2023/01/01 02:38:52;;;;;;;24.70;20.97;;;8.80;99.90;;;;;;5098386;28;20193;-78
2023/01/01 02:41:23;;;;;;;28.33;21.97;;;8.70;99.90;;;;;;5098872;28;20214;-78
2023/01/01 02:43:51;;;;;;;29.57;22.93;;;8.70;99.90;;;;;;5098455;28;20201;-78
2023/01/01 02:46:18;;;;;;;33.57;24.63;;;8.50;99.90;;;;;;5099231;28;20253;-78
2023/01/01 02:48:46;;;;;;;28.30;20.30;;;8.40;99.90;;;;;;5098825;28;20200;-78
2023/01/01 02:51:27;;;;;;;25.27;19.77;;;8.30;99.90;;;;;;5099483;28;20283;-78
2023/01/01 02:54:02;;;;;;;25.70;18.43;;;8.30;99.90;;;;;;5099116;28;20204;-78
2023/01/01 02:56:37;;;;;;;28.47;21.57;;;8.30;99.90;;;;;;5098496;28;20691;-80
2023/01/01 03:02:11;;;;;;;26.70;19.30;;;8.40;99.90;;;;;;5098459;28;20717;-78
2023/01/01 03:04:49;;;;;;;25.27;20.13;;;8.30;99.90;;;;;;5097795;28;20249;-79
2023/01/01 03:07:24;;;;;;;26.93;20.97;;;8.30;99.90;;;;;;5097365;28;20192;-78
2023/01/01 03:09:56;;;;;;;26.37;20.17;;;8.30;99.90;;;;;;5098186;28;20200;-77
2023/01/01 03:12:38;;;;;;;30.53;22.60;;;8.20;99.90;;;;;;5099341;28;20250;-78
2023/01/01 03:15:12;;;;;;;33.70;22.67;;;8.20;99.90;;;;;;5100227;28;20241;-77
2023/01/01 03:17:44;;;;;;;32.00;23.53;;;8.20;99.90;;;;;;5099442;28;20200;-78
2023/01/01 03:20:15;;;;;;;30.90;21.77;;;8.50;99.90;;;;;;5098688;28;20200;-78
2023/01/01 03:22:44;;;;;;;25.20;19.23;;;8.60;99.90;;;;;;5099519;28;20222;-78
2023/01/01 03:25:14;;;;;;;29.90;22.37;;;8.90;99.90;;;;;;5098428;28;20192;-78
2023/01/01 03:27:44;;;;;;;39.80;30.73;;;9.10;99.90;;;;;;5099236;28;20207;-78
2023/01/01 03:30:14;;;;;;;35.77;26.97;;;9.30;99.90;;;;;;5099336;28;20629;-78
2023/01/01 03:32:59;;;;;;;37.63;27.13;;;9.60;99.90;;;;;;5099166;28;20222;-78
2023/01/01 03:35:30;;;;;;;25.97;19.30;;;10.00;99.90;;;;;;5098842;28;20196;-78
2023/01/01 03:37:59;;;;;;;17.17;13.20;;;10.30;99.90;;;;;;5098241;28;20192;-78
2023/01/01 03:40:28;;;;;;;18.03;12.87;;;10.70;99.90;;;;;;5098495;28;20218;-78
2023/01/01 03:43:00;;;;;;;14.43;11.50;;;11.00;99.90;;;;;;5098124;28;20261;-78
2023/01/01 03:45:33;;;;;;;12.10;8.90;;;11.50;99.90;;;;;;5098922;28;20245;-78
2023/01/01 03:48:00;;;;;;;12.13;9.70;;;11.70;99.90;;;;;;5098021;28;20245;-78
2023/01/01 03:50:42;;;;;;;12.47;9.07;;;11.90;99.90;;;;;;5097587;28;20601;-79
2023/01/01 03:53:15;;;;;;;14.33;10.17;;;12.10;99.90;;;;;;5098244;28;20257;-78
2023/01/01 03:55:48;;;;;;;13.37;9.67;;;12.30;99.90;;;;;;5097285;28;20216;-78
2023/01/01 03:58:20;;;;;;;11.00;9.23;;;12.30;99.90;;;;;;5096559;28;20220;-78
2023/01/01 04:00:54;;;;;;;13.67;8.27;;;12.20;99.90;;;;;;5096985;28;20242;-78
2023/01/01 04:03:23;;;;;;;12.33;9.13;;;12.10;99.90;;;;;;5097702;28;20717;-78
2023/01/01 04:05:50;;;;;;;11.53;8.33;;;12.00;99.90;;;;;;5099844;28;20273;-78
2023/01/01 04:08:17;;;;;;;8.60;7.53;;;12.00;99.90;;;;;;5098129;28;20228;-78
2023/01/01 04:10:47;;;;;;;9.20;7.20;;;11.80;99.90;;;;;;5100036;28;20602;-78
2023/01/01 04:13:14;;;;;;;11.93;7.93;;;11.90;99.90;;;;;;5100605;28;20196;-78
2023/01/01 04:15:41;;;;;;;8.70;6.60;;;11.90;99.90;;;;;;5100755;28;20644;-76
2023/01/01 04:18:09;;;;;;;10.27;6.80;;;11.80;99.90;;;;;;5100393;28;20196;-78
2023/01/01 04:20:35;;;;;;;8.97;6.87;;;11.90;99.90;;;;;;5100636;28;20200;-79
2023/01/01 04:23:03;;;;;;;8.17;6.60;;;11.80;99.90;;;;;;5099921;28;20249;-77
2023/01/01 04:25:30;;;;;;;8.63;6.43;;;11.70;99.90;;;;;;5100940;28;20196;-79
2023/01/01 04:27:58;;;;;;;9.77;6.40;;;11.90;99.90;;;;;;5099923;28;20192;-79
2023/01/01 04:30:25;;;;;;;7.37;6.13;;;11.90;99.90;;;;;;5099432;28;20192;-78
2023/01/01 04:32:52;;;;;;;9.00;6.00;;;12.10;99.90;;;;;;5098712;28;20279;-78
2023/01/01 04:35:20;;;;;;;8.90;5.87;;;12.10;99.90;;;;;;5096095;28;20193;-79
2023/01/01 04:37:46;;;;;;;9.17;6.10;;;12.10;99.90;;;;;;5098818;28;20225;-78
2023/01/01 04:40:14;;;;;;;6.83;5.37;;;12.10;99.90;;;;;;5097384;28;20200;-79
2023/01/01 04:42:40;;;;;;;8.30;6.37;;;12.00;99.90;;;;;;5097201;28;20568;-79
2023/01/01 04:45:08;;;;;;;8.90;6.03;;;11.90;99.90;;;;;;5098099;28;20201;-78
2023/01/01 04:47:35;;;;;;;8.27;6.07;;;11.80;99.90;;;;;;5099410;28;20200;-79
2023/01/01 04:50:01;;;;;;;7.20;5.90;;;11.70;99.90;;;;;;5099115;28;20242;-78
2023/01/01 04:52:29;;;;;;;7.77;5.73;;;11.70;99.90;;;;;;5102356;28;20202;-79
2023/01/01 04:54:56;;;;;;;7.33;5.87;;;11.60;99.90;;;;;;5106942;28;20717;-79
2023/01/01 04:57:22;;;;;;;6.90;5.63;;;11.50;99.90;;;;;;5106296;28;20281;-79
2023/01/01 04:59:49;;;;;;;8.90;6.00;;;11.40;99.90;;;;;;5106889;28;20228;-79
2023/01/01 05:02:16;;;;;;;8.57;6.27;;;11.30;99.90;;;;;;5103853;28;20246;-79
2023/01/01 05:04:42;;;;;;;9.83;6.30;;;11.20;99.90;;;;;;5102964;28;20218;-77
2023/01/01 05:07:09;;;;;;;8.43;5.73;;;11.10;99.90;;;;;;5101542;28;20192;-78
2023/01/01 05:09:37;;;;;;;8.13;5.30;;;11.20;99.90;;;;;;5100909;28;20652;-78
2023/01/01 05:12:04;;;;;;;8.80;5.40;;;11.20;99.90;;;;;;5101700;28;20540;-78
2023/01/01 05:14:30;;;;;;;7.37;5.50;;;11.30;99.90;;;;;;5100453;28;20199;-78
2023/01/01 05:16:57;;;;;;;7.37;5.83;;;11.10;99.90;;;;;;5100411;28;20258;-78
2023/01/01 05:19:23;;;;;;;7.43;5.43;;;11.10;99.90;;;;;;5099969;28;20197;-78
2023/01/01 05:21:50;;;;;;;8.47;5.33;;;11.00;99.90;;;;;;5099946;28;20196;-78
2023/01/01 05:24:17;;;;;;;7.77;5.80;;;11.00;99.90;;;;;;5100163;28;20208;-78
2023/01/01 05:26:45;;;;;;;7.07;5.33;;;10.90;99.90;;;;;;5100937;28;20663;-78
2023/01/01 05:29:12;;;;;;;7.80;5.70;;;10.70;99.90;;;;;;5101211;28;20192;-78
2023/01/01 05:31:39;;;;;;;7.77;5.77;;;10.70;99.90;;;;;;5101157;28;20254;-78
2023/01/01 05:34:08;;;;;;;7.53;4.93;;;10.70;99.90;;;;;;5101161;28;20197;-78
2023/01/01 05:36:37;;;;;;;9.00;5.23;;;10.60;99.90;;;;;;5101517;28;20220;-78
2023/01/01 05:39:05;;;;;;;7.90;5.27;;;10.40;99.90;;;;;;5102066;28;20196;-77
2023/01/01 05:41:34;;;;;;;6.87;5.13;;;10.40;99.90;;;;;;5101086;28;20209;-79
2023/01/01 05:44:03;;;;;;;6.03;5.13;;;10.40;99.90;;;;;;5100338;28;20207;-78
2023/01/01 05:46:30;;;;;;;8.10;4.70;;;10.30;99.90;;;;;;5100034;28;20200;-78
2023/01/01 05:48:56;;;;;;;6.10;4.67;;;10.50;99.90;;;;;;5100895;28;20200;-78
2023/01/01 05:51:25;;;;;;;6.50;4.83;;;10.70;99.90;;;;;;5100942;28;20196;-78
2023/01/01 05:53:53;;;;;;;5.50;4.77;;;10.60;99.90;;;;;;5101358;28;20664;-78
2023/01/01 05:56:19;;;;;;;6.47;5.03;;;10.50;99.90;;;;;;5101175;28;20224;-78
2023/01/01 05:58:46;;;;;;;7.20;4.67;;;10.30;99.90;;;;;;5100701;28;20197;-78
2023/01/01 06:01:17;;;;;;;6.70;4.70;;;10.50;99.90;;;;;;5101092;28;20196;-79
2023/01/01 06:03:44;;;;;;;8.50;5.67;;;10.70;99.90;;;;;;5102177;28;20201;-78
2023/01/01 06:06:13;;;;;;;8.67;5.30;;;10.90;99.90;;;;;;5100599;28;20222;-78
2023/01/01 06:08:40;;;;;;;7.33;5.63;;;10.90;99.90;;;;;;5102786;28;20224;-79
2023/01/01 06:11:10;;;;;;;6.90;5.90;;;11.00;99.90;;;;;;5103774;28;20273;-79
2023/01/01 06:13:38;;;;;;;7.40;4.87;;;10.90;99.90;;;;;;5103048;28;20238;-78
2023/01/01 06:16:05;;;;;;;7.23;5.00;;;10.80;99.90;;;;;;5102515;28;20196;-79
2023/01/01 06:18:35;;;;;;;6.73;4.87;;;10.80;99.90;;;;;;5101723;28;20253;-79
2023/01/01 06:21:06;;;;;;;7.97;5.10;;;10.60;99.90;;;;;;5102386;28;20222;-79
2023/01/01 06:23:33;;;;;;;8.60;4.80;;;10.70;99.90;;;;;;5102037;28;20671;-79
2023/01/01 06:26:08;;;;;;;7.67;5.17;;;10.80;99.90;;;;;;5100292;28;20250;-78
2023/01/01 06:28:34;;;;;;;9.40;5.10;;;10.90;99.90;;;;;;5099786;28;20241;-78
2023/01/01 06:31:01;;;;;;;7.87;5.23;;;11.10;99.90;;;;;;5095789;28;20197;-78
2023/01/01 06:33:28;;;;;;;6.80;4.70;;;11.10;99.90;;;;;;5094735;28;20197;-78
2023/01/01 06:35:56;;;;;;;9.50;5.23;;;11.00;99.90;;;;;;5095193;28;20598;-78
2023/01/01 06:38:23;;;;;;;5.73;4.50;;;11.00;99.90;;;;;;5095045;28;20223;-78
2023/01/01 06:40:56;;;;;;;7.33;4.83;;;11.20;99.90;;;;;;5094404;28;20246;-77
2023/01/01 06:43:23;;;;;;;7.07;4.70;;;11.10;99.90;;;;;;5094994;28;20686;-78
2023/01/01 06:45:59;;;;;;;7.77;4.53;;;11.20;99.90;;;;;;5095221;28;20250;-77
2023/01/01 06:48:27;;;;;;;6.57;4.43;;;11.20;99.90;;;;;;5095291;28;20200;-78
2023/01/01 06:50:53;;;;;;;6.17;4.00;;;11.20;99.90;;;;;;5095591;28;20250;-78
2023/01/01 06:53:25;;;;;;;5.70;4.37;;;11.20;99.90;;;;;;5094813;28;20192;-78
2023/01/01 06:55:52;;;;;;;5.53;4.20;;;11.20;99.90;;;;;;5095180;28;20579;-79
2023/01/01 06:58:18;;;;;;;6.87;5.10;;;10.90;99.90;;;;;;5094744;28;20691;-78
2023/01/01 07:00:45;;;;;;;9.47;6.20;;;11.00;99.90;;;;;;5095607;28;20195;-78
2023/01/01 07:03:12;;;;;;;8.37;6.53;;;10.90;99.90;;;;;;5096481;28;20726;-79
2023/01/01 07:05:38;;;;;;;11.80;7.40;;;10.80;99.90;;;;;;5097578;28;20203;-77
2023/01/01 07:08:05;;;;;;;11.37;7.73;;;10.60;99.90;;;;;;5097382;28;20707;-78
2023/01/01 07:10:34;;;;;;;10.43;7.50;;;10.40;99.90;;;;;;5097904;28;20254;-78
2023/01/01 07:13:00;;;;;;;13.00;8.30;;;10.30;99.90;;;;;;5097827;28;20386;-78
2023/01/01 07:15:27;;;;;;;10.37;7.73;;;10.20;99.90;;;;;;5097871;28;20223;-78
2023/01/01 07:17:54;;;;;;;12.87;9.00;;;10.10;99.90;;;;;;5098048;28;20254;-78
2023/01/01 07:20:20;;;;;;;11.57;9.40;;;10.00;99.90;;;;;;5098024;28;20218;-78
2023/01/01 07:22:47;;;;;;;12.10;8.80;;;9.90;99.90;;;;;;5097761;28;20196;-78
2023/01/01 07:25:15;;;;;;;14.23;9.77;;;9.80;99.90;;;;;;5098536;28;20253;-79
2023/01/01 07:27:43;;;;;;;13.07;9.87;;;9.90;99.90;;;;;;5097476;28;20571;-79
2023/01/01 07:30:10;;;;;;;12.10;9.40;;;9.80;99.90;;;;;;5097597;28;20260;-79
2023/01/01 07:32:36;;;;;;;11.90;9.37;;;9.90;99.90;;;;;;5097495;28;20200;-79
2023/01/01 07:35:03;;;;;;;11.10;9.50;;;9.80;99.90;;;;;;5097919;28;20249;-79
2023/01/01 07:37:30;;;;;;;13.27;9.53;;;9.80;99.90;;;;;;5097880;28;20691;-79
2023/01/01 07:39:56;;;;;;;12.40;9.13;;;10.00;99.90;;;;;;5098201;28;20193;-78
2023/01/01 07:42:23;;;;;;;14.03;9.70;;;10.20;99.90;;;;;;5098505;28;20250;-79
2023/01/01 07:44:51;;;;;;;12.77;10.50;;;10.10;99.90;;;;;;5097813;28;20200;-80
2023/01/01 07:47:21;;;;;;;15.27;9.63;;;10.10;99.90;;;;;;5096861;28;20200;-78
2023/01/01 07:49:48;;;;;;;13.67;9.87;;;10.20;99.90;;;;;;5097727;28;20325;-79
2023/01/01 07:52:15;;;;;;;10.93;8.87;;;10.20;99.90;;;;;;5098019;28;20273;-79
2023/01/01 07:54:41;;;;;;;12.60;9.57;;;10.40;99.90;;;;;;5108094;28;20199;-79
2023/01/01 07:57:08;;;;;;;14.20;9.20;;;10.40;99.90;;;;;;5118169;28;20583;-79
2023/01/01 07:59:34;;;;;;;15.17;8.80;;;10.50;99.90;;;;;;5118281;28;20256;-79
2023/01/01 08:02:03;;;;;;;13.83;9.40;;;10.60;99.90;;;;;;5118564;28;20204;-78
2023/01/01 08:04:30;;;;;;;13.43;9.13;;;10.70;99.90;;;;;;5119214;28;20249;-79
2023/01/01 08:06:56;;;;;;;15.00;9.90;;;10.80;99.90;;;;;;5123913;28;20222;-78
2023/01/01 08:09:23;;;;;;;13.20;8.97;;;10.90;99.90;;;;;;5123906;28;20320;-80
2023/01/01 08:11:51;;;;;;;11.37;8.90;;;11.00;99.90;;;;;;5127199;28;20241;-80
2023/01/01 08:14:18;;;;;;;11.37;8.73;;;11.10;99.90;;;;;;5129014;28;20207;-79
2023/01/01 08:16:44;;;;;;;12.37;9.23;;;11.10;99.90;;;;;;5128883;28;20221;-80
2023/01/01 08:19:12;;;;;;;10.87;8.90;;;11.10;99.90;;;;;;5126792;28;20208;-80
2023/01/01 08:21:39;;;;;;;10.67;8.80;;;11.20;99.90;;;;;;5128575;28;20191;-79
2023/01/01 08:24:06;;;;;;;12.47;8.60;;;11.30;99.90;;;;;;5128874;28;20199;-80
2023/01/01 08:26:35;;;;;;;12.23;8.70;;;11.30;99.90;;;;;;5128078;28;20261;-80
2023/01/01 08:29:03;;;;;;;12.40;8.50;;;11.30;99.90;;;;;;5123207;28;20207;-79
2023/01/01 08:31:29;;;;;;;12.53;8.40;;;11.30;99.90;;;;;;5118653;28;20249;-79
2023/01/01 08:33:56;;;;;;;9.27;7.30;;;11.40;99.90;;;;;;5117915;28;20192;-79
2023/01/01 08:36:25;;;;;;;11.97;6.67;;;11.40;99.90;;;;;;5117577;28;20192;-79
2023/01/01 08:38:51;;;;;;;9.73;6.67;;;11.50;99.90;;;;;;5117805;28;20227;-80
2023/01/01 08:41:18;;;;;;;8.53;6.47;;;11.50;99.90;;;;;;5118741;28;20291;-79
2023/01/01 08:43:45;;;;;;;28.47;17.90;;;11.60;99.90;;;;;;5118098;28;20268;-79
2023/01/01 08:46:11;;;;;;;7.90;6.30;;;11.80;99.90;;;;;;5118183;28;20268;-79
2023/01/01 08:48:38;;;;;;;6.97;5.63;;;11.90;99.90;;;;;;5117825;28;20658;-78
2023/01/01 08:51:05;;;;;;;7.10;5.90;;;11.90;99.90;;;;;;5117557;28;20252;-79
2023/01/01 08:53:33;;;;;;;7.70;5.80;;;12.00;99.90;;;;;;5114997;28;20261;-79
2023/01/01 08:56:02;;;;;;;6.47;5.07;;;11.90;99.90;;;;;;5115906;28;20191;-79
2023/01/01 08:58:30;;;;;;;7.30;5.30;;;11.90;99.90;;;;;;5116881;28;20263;-78
2023/01/01 09:00:58;;;;;;;8.20;5.93;;;12.00;99.90;;;;;;5116777;28;20202;-79
2023/01/01 09:03:25;;;;;;;8.33;6.03;;;12.00;99.90;;;;;;5117611;28;20203;-79
2023/01/01 09:05:51;;;;;;;8.73;5.93;;;12.00;99.90;;;;;;5118693;28;20196;-79
2023/01/01 09:08:18;;;;;;;6.80;5.53;;;12.10;99.90;;;;;;5117286;28;20628;-78
2023/01/01 09:10:46;;;;;;;8.33;6.70;;;12.10;99.90;;;;;;5116826;28;20200;-78
2023/01/01 09:13:14;;;;;;;5.60;4.50;;;12.20;99.90;;;;;;5115762;28;20196;-78
2023/01/01 09:15:42;;;;;;;7.17;5.27;;;12.30;99.90;;;;;;5115230;28;20798;-78
2023/01/01 09:18:09;;;;;;;8.03;4.53;;;12.40;99.90;;;;;;5115357;28;20220;-77
2023/01/01 09:20:37;;;;;;;7.37;5.10;;;12.40;99.90;;;;;;5115581;28;20200;-78
2023/01/01 09:23:04;;;;;;;6.90;4.90;;;12.50;99.90;;;;;;5114765;28;20252;-77
2023/01/01 09:25:31;;;;;;;8.77;4.90;;;12.50;99.90;;;;;;5114043;28;20261;-77
2023/01/01 09:27:59;;;;;;;6.10;4.47;;;12.70;99.90;;;;;;5114099;28;20227;-78
2023/01/01 09:30:26;;;;;;;6.63;4.67;;;12.80;99.90;;;;;;5114790;28;20225;-78
2023/01/01 09:32:53;;;;;;;8.57;4.70;;;13.00;99.90;;;;;;5116861;28;20221;-80
2023/01/01 09:35:20;;;;;;;6.23;4.77;;;13.10;99.90;;;;;;5116558;28;20655;-80
2023/01/01 09:37:46;;;;;;;7.13;4.50;;;13.30;99.90;;;;;;5117219;28;20215;-77
2023/01/01 09:40:26;;;;;;;7.93;4.87;;;13.50;99.90;;;;;;5115968;28;20192;-76
2023/01/01 09:43:06;;;;;;;5.90;4.70;;;13.70;99.90;;;;;;5115560;28;20632;-76
2023/01/01 09:45:37;;;;;;;7.20;4.90;;;14.00;99.90;;;;;;5115716;28;20195;-76
2023/01/01 09:48:06;;;;;;;6.95;4.93;;;14.30;99.90;;;;;;5115441;28;20195;-84
2023/01/01 09:50:36;;;;;;;5.22;4.00;;;14.60;99.90;;;;;;5114956;28;20250;-84
2023/01/01 09:53:06;;;;;;;5.93;4.15;;;14.70;99.90;;;;;;5115059;28;20597;-81
2023/01/01 09:55:42;;;;;;;5.80;3.90;;;14.90;99.90;;;;;;5120922;28;20196;-80
2023/01/01 09:58:11;;;;;;;6.07;3.90;;;14.90;99.90;;;;;;5117391;28;20616;-82
2023/01/01 10:00:42;;;;;;;5.20;3.90;;;15.00;99.90;;;;;;5115332;28;20743;-81
2023/01/01 10:03:25;;;;;;;4.90;3.78;;;15.10;99.90;;;;;;5119141;28;20200;-81
2023/01/01 10:05:56;;;;;;;7.50;3.72;;;15.00;99.90;;;;;;5123202;28;20225;-85
2023/01/01 10:08:40;;;;;;;4.45;3.92;;;15.10;99.90;;;;;;5117861;28;20238;-77
2023/01/01 10:11:18;;;;;;;4.65;3.63;;;15.10;99.90;;;;;;5117395;28;20192;-78
2023/01/01 10:13:46;;;;;;;4.72;3.90;;;15.00;99.90;;;;;;5113721;28;20600;-79
2023/01/01 10:16:27;;;;;;;7.13;3.80;;;15.10;99.90;;;;;;5112399;28;20200;-78
2023/01/01 10:18:57;;;;;;;6.25;4.05;;;15.10;99.90;;;;;;5112508;28;20397;-77
2023/01/01 10:21:26;;;;;;;7.95;5.38;;;15.20;99.90;;;;;;5113121;28;20280;-76
2023/01/01 10:23:58;;;;;;;5.65;4.55;;;14.90;99.90;;;;;;5112686;28;20684;-77
2023/01/01 10:26:28;;;;;;;6.32;4.70;;;15.00;99.90;;;;;;5111696;28;20203;-77
2023/01/01 10:29:01;;;;;;;7.28;4.18;;;15.10;99.90;;;;;;5111843;28;20196;-78
2023/01/01 10:31:32;;;;;;;8.38;5.57;;;15.30;99.90;;;;;;5098521;28;20200;-77
2023/01/01 10:34:06;;;;;;;5.68;4.03;;;15.40;99.90;;;;;;5090977;28;20215;-77
2023/01/01 10:36:32;;;;;;;6.10;4.60;;;15.60;99.90;;;;;;5091590;28;20254;-76
2023/01/01 10:38:59;;;;;;;7.00;4.88;;;15.40;99.90;;;;;;5091305;28;20289;-77
2023/01/01 10:41:26;;;;;;;7.72;5.07;;;15.30;99.90;;;;;;5100104;28;20200;-78
2023/01/01 10:43:52;;;;;;;8.88;5.05;;;15.20;99.90;;;;;;5093327;28;20265;-77
2023/01/01 10:46:23;;;;;;;8.10;5.15;;;15.10;99.90;;;;;;5091127;28;20568;-79
2023/01/01 10:49:09;;;;;;;7.70;4.65;;;15.10;99.90;;;;;;5091069;28;20204;-78
2023/01/01 10:51:38;;;;;;;8.88;4.60;;;15.20;99.90;;;;;;5090738;28;20204;-80
2023/01/01 10:54:05;;;;;;;5.28;4.63;;;15.30;99.90;;;;;;5091109;28;20204;-78
2023/01/01 10:56:40;;;;;;;7.95;5.63;;;15.50;99.90;;;;;;5091041;28;20225;-78
2023/01/01 10:59:35;;;;;;;6.80;5.55;;;15.50;99.90;;;;;;5091268;28;20224;-78
2023/01/01 11:02:19;;;;;;;7.57;5.40;;;15.60;99.90;;;;;;5093335;28;20202;-79
2023/01/01 11:04:45;;;;;;;6.88;5.72;;;15.90;99.90;;;;;;5093251;28;20200;-81
2023/01/01 11:07:21;;;;;;;6.93;5.32;;;16.10;99.90;;;;;;5092967;28;20197;-79
2023/01/01 11:09:49;;;;;;;9.70;5.43;;;16.70;99.90;;;;;;5093126;28;20727;-77
2023/01/01 11:12:20;;;;;;;6.65;4.68;;;17.30;99.90;;;;;;5093297;28;20547;-78
2023/01/01 11:14:52;;;;;;;6.20;4.32;;;18.40;99.90;;;;;;5093232;28;20196;-79
2023/01/01 11:17:23;;;;;;;8.75;4.85;;;19.60;99.90;;;;;;5092952;28;20678;-75
2023/01/01 11:19:51;;;;;;;8.43;4.68;;;19.50;99.90;;;;;;5093649;28;20232;-74
2023/01/01 11:22:38;;;;;;;5.15;3.95;;;19.70;99.90;;;;;;5094406;28;20646;-77
2023/01/01 11:25:18;;;;;;;6.38;4.45;;;19.80;99.90;;;;;;5092934;28;20555;-78
2023/01/01 11:27:45;;;;;;;7.43;4.25;;;19.80;99.90;;;;;;5092948;28;20200;-77
2023/01/01 11:30:21;;;;;;;5.78;4.32;;;20.10;99.90;;;;;;5092937;28;20246;-77
2023/01/01 11:32:52;;;;;;;5.28;4.30;;;19.80;99.90;;;;;;5092783;28;20654;-78
2023/01/01 11:35:22;;;;;;;6.25;4.88;;;19.30;99.90;;;;;;5093038;28;20200;-77
2023/01/01 11:37:49;;;;;;;6.38;3.97;;;19.10;99.90;;;;;;5092854;28;20192;-77
2023/01/01 11:40:18;;;;;;;6.25;4.45;;;19.00;99.90;;;;;;5092732;28;20250;-78
2023/01/01 11:42:49;;;;;;;7.95;4.53;;;19.40;99.90;;;;;;5092610;28;20192;-77
2023/01/01 11:45:20;;;;;;;6.57;4.30;;;19.60;99.90;;;;;;5092616;28;20651;-78
2023/01/01 11:47:53;;;;;;;8.85;3.90;;;18.80;99.90;;;;;;5096582;28;20196;-77
2023/01/01 11:50:25;;;;;;;4.97;3.90;;;18.50;99.90;;;;;;5096897;28;20200;-78
2023/01/01 11:52:57;;;;;;;6.30;4.20;;;18.60;99.90;;;;;;5096666;28;20218;-78
2023/01/01 11:55:29;;;;;;;9.38;4.13;;;18.70;99.90;;;;;;5096514;28;20200;-78
2023/01/01 11:58:03;;;;;;;5.45;3.80;;;19.20;99.90;;;;;;5096626;28;20256;-78
2023/01/01 12:00:35;;;;;;;8.30;3.97;;;19.80;99.90;;;;;;5096731;28;20196;-78
2023/01/01 12:03:12;;;;;;;7.75;4.50;;;20.20;99.90;;;;;;5096530;28;20265;-77
2023/01/01 12:05:45;;;;;;;8.10;4.50;;;21.20;99.90;;;;;;5096385;28;20269;-77
2023/01/01 12:08:16;;;;;;;6.47;4.68;;;21.80;99.90;;;;;;5096417;28;20236;-77
2023/01/01 12:10:50;;;;;;;7.95;4.80;;;22.30;99.90;;;;;;5096355;28;20594;-76
2023/01/01 12:13:20;;;;;;;9.52;4.95;;;23.20;99.90;;;;;;5096573;28;20254;-77
2023/01/01 12:15:53;;;;;;;7.97;4.95;;;23.70;99.90;;;;;;5096810;28;20196;-77
2023/01/01 12:18:27;;;;;;;6.72;5.25;;;24.20;99.90;;;;;;5096189;28;20273;-77
2023/01/01 12:21:00;;;;;;;8.52;4.45;;;23.60;99.90;;;;;;5096479;28;20281;-77
2023/01/01 12:23:26;;;;;;;5.32;3.97;;;22.50;99.30;;;;;;5096456;28;20193;-78
2023/01/01 12:26:01;;;;;;;5.78;3.20;;;20.90;99.80;;;;;;5096263;28;20197;-78
2023/01/01 12:28:37;;;;;;;7.38;3.75;;;21.20;99.60;;;;;;5096175;28;20727;-77
2023/01/01 12:31:12;;;;;;;4.53;3.50;;;22.20;98.60;;;;;;5096454;28;20257;-78
2023/01/01 12:33:57;;;;;;;5.68;3.25;;;21.10;98.70;;;;;;5096418;28;20200;-79
2023/01/01 12:36:33;;;;;;;7.20;3.25;;;22.20;99.70;;;;;;5097428;28;20654;-78
2023/01/01 12:39:28;;;;;;;6.95;3.38;;;22.10;97.50;;;;;;5095843;28;20220;-78
2023/01/01 12:42:02;;;;;;;6.60;3.30;;;22.50;97.30;;;;;;5079144;28;20200;-78
2023/01/01 12:44:38;;;;;;;9.23;3.67;;;22.30;96.70;;;;;;5096169;28;20586;-78
2023/01/01 12:47:12;;;;;;;8.55;3.13;;;22.50;96.90;;;;;;5095983;28;20200;-77
2023/01/01 12:49:56;;;;;;;5.65;3.50;;;22.90;96.20;;;;;;5095846;28;20650;-77
2023/01/01 12:52:41;;;;;;;5.82;3.22;;;23.10;96.50;;;;;;5095580;28;20200;-77
2023/01/01 12:55:45;;;;;;;5.53;3.20;;;23.10;95.50;;;;;;5095916;28;20196;-77
2023/01/01 12:58:17;;;;;;;6.25;4.22;;;21.50;96.40;;;;;;5090183;28;20206;-77
2023/01/01 13:00:53;;;;;;;8.90;4.38;;;21.70;96.70;;;;;;5095500;28;20200;-77